sensor_id;sensor_type;location;lat;lon;timestamp;pressure;altitude;pressure_sealevel;temperature;humidity
9077;BME280;4574;51.072;17.174;2023-03-03T00:01:30;100640.81;;;3.52;100.00
9077;BME280;4574;51.072;17.174;2023-03-03T00:03:59;100638.06;;;3.53;100.00
9077;BME280;4574;51.072;17.174;2023-03-03T00:06:28;100633.78;;;3.52;100.00
9077;BME280;4574;51.072;17.174;2023-03-03T00:08:57;100633.69;;;3.54;100.00
9077;BME280;4574;51.072;17.174;2023-03-03T00:11:25;100629.28;;;3.54;100.00
9077;BME280;4574;51.072;17.174;2023-03-03T00:13:55;100635.38;;;3.55;100.00
9077;BME280;4574;51.072;17.174;2023-03-03T00:16:27;100641.44;;;3.55;100.00
9077;BME280;4574;51.072;17.174;2023-03-03T00:18:58;100646.59;;;3.57;100.00
9077;BME280;4574;51.072;17.174;2023-03-03T00:21:29;100643.06;;;3.58;100.00
9077;BME280;4574;51.072;17.174;2023-03-03T00:24:14;100650.91;;;3.58;100.00
9077;BME280;4574;51.072;17.174;2023-03-03T00:26:47;100645.84;;;3.55;100.00
9077;BME280;4574;51.072;17.174;2023-03-03T00:29:37;100649.41;;;3.54;100.00
9077;BME280;4574;51.072;17.174;2023-03-03T00:32:22;100655.75;;;3.50;100.00
9077;BME280;4574;51.072;17.174;2023-03-03T00:34:53;100658.81;;;3.42;100.00
9077;BME280;4574;51.072;17.174;2023-03-03T00:37:26;100642.78;;;3.19;100.00
9077;BME280;4574;51.072;17.174;2023-03-03T00:40:10;100646.50;;;3.15;100.00
9077;BME280;4574;51.072;17.174;2023-03-03T00:42:42;100636.06;;;3.15;100.00
9077;BME280;4574;51.072;17.174;2023-03-03T00:45:28;100632.50;;;3.16;100.00
9077;BME280;4574;51.072;17.174;2023-03-03T00:47:57;100625.78;;;3.12;100.00
9077;BME280;4574;51.072;17.174;2023-03-03T00:50:32;100619.53;;;3.14;100.00
9077;BME280;4574;51.072;17.174;2023-03-03T00:53:03;100615.31;;;3.12;100.00
9077;BME280;4574;51.072;17.174;2023-03-03T00:55:33;100609.13;;;2.99;100.00
9077;BME280;4574;51.072;17.174;2023-03-03T00:58:03;100624.09;;;3.11;100.00
9077;BME280;4574;51.072;17.174;2023-03-03T01:00:32;100620.63;;;2.96;100.00
9077;BME280;4574;51.072;17.174;2023-03-03T01:03:03;100620.69;;;2.95;100.00
9077;BME280;4574;51.072;17.174;2023-03-03T01:05:34;100615.63;;;2.92;100.00
9077;BME280;4574;51.072;17.174;2023-03-03T01:08:03;100603.97;;;2.83;100.00
9077;BME280;4574;51.072;17.174;2023-03-03T01:10:34;100619.19;;;2.91;100.00
9077;BME280;4574;51.072;17.174;2023-03-03T01:13:04;100612.66;;;2.98;100.00
9077;BME280;4574;51.072;17.174;2023-03-03T01:15:33;100620.13;;;2.90;100.00
9077;BME280;4574;51.072;17.174;2023-03-03T01:18:02;100603.66;;;2.88;100.00
9077;BME280;4574;51.072;17.174;2023-03-03T01:20:32;100618.66;;;3.00;100.00
9077;BME280;4574;51.072;17.174;2023-03-03T01:23:01;100616.72;;;3.03;100.00
9077;BME280;4574;51.072;17.174;2023-03-03T01:25:30;100610.63;;;3.03;100.00
9077;BME280;4574;51.072;17.174;2023-03-03T01:27:58;100591.19;;;2.93;100.00
9077;BME280;4574;51.072;17.174;2023-03-03T01:30:27;100612.31;;;3.04;100.00
9077;BME280;4574;51.072;17.174;2023-03-03T01:32:56;100588.94;;;3.01;100.00
9077;BME280;4574;51.072;17.174;2023-03-03T01:35:24;100585.16;;;3.06;100.00
9077;BME280;4574;51.072;17.174;2023-03-03T01:37:55;100587.19;;;3.01;100.00
9077;BME280;4574;51.072;17.174;2023-03-03T01:40:26;100576.81;;;3.00;100.00
9077;BME280;4574;51.072;17.174;2023-03-03T01:42:54;100582.97;;;2.99;100.00
9077;BME280;4574;51.072;17.174;2023-03-03T01:45:24;100577.16;;;2.94;100.00
9077;BME280;4574;51.072;17.174;2023-03-03T01:47:59;100581.28;;;2.98;100.00
9077;BME280;4574;51.072;17.174;2023-03-03T01:50:41;100578.03;;;2.94;100.00
9077;BME280;4574;51.072;17.174;2023-03-03T01:53:17;100570.81;;;2.98;100.00
9077;BME280;4574;51.072;17.174;2023-03-03T01:55:49;100575.88;;;3.01;100.00
9077;BME280;4574;51.072;17.174;2023-03-03T01:58:21;100568.03;;;3.01;100.00
9077;BME280;4574;51.072;17.174;2023-03-03T02:00:54;100567.09;;;3.02;100.00
9077;BME280;4574;51.072;17.174;2023-03-03T02:03:25;100558.50;;;3.00;100.00
9077;BME280;4574;51.072;17.174;2023-03-03T02:05:57;100570.75;;;2.99;100.00
9077;BME280;4574;51.072;17.174;2023-03-03T02:08:35;100562.06;;;2.99;100.00
9077;BME280;4574;51.072;17.174;2023-03-03T02:11:07;100564.78;;;2.97;100.00
9077;BME280;4574;51.072;17.174;2023-03-03T02:13:36;100551.75;;;2.82;100.00
9077;BME280;4574;51.072;17.174;2023-03-03T02:16:05;100560.09;;;2.88;100.00
9077;BME280;4574;51.072;17.174;2023-03-03T02:18:34;100539.34;;;2.71;100.00
9077;BME280;4574;51.072;17.174;2023-03-03T02:21:07;100552.78;;;2.79;100.00
9077;BME280;4574;51.072;17.174;2023-03-03T02:23:42;100551.00;;;2.80;100.00
9077;BME280;4574;51.072;17.174;2023-03-03T02:26:17;100545.97;;;2.77;100.00
9077;BME280;4574;51.072;17.174;2023-03-03T02:28:47;100546.25;;;2.72;100.00
9077;BME280;4574;51.072;17.174;2023-03-03T02:31:17;100546.31;;;2.71;100.00
9077;BME280;4574;51.072;17.174;2023-03-03T02:33:48;100554.25;;;2.69;100.00
9077;BME280;4574;51.072;17.174;2023-03-03T02:36:18;100559.50;;;2.69;100.00
9077;BME280;4574;51.072;17.174;2023-03-03T02:38:51;100561.72;;;2.62;100.00
9077;BME280;4574;51.072;17.174;2023-03-03T02:41:29;100561.03;;;2.58;100.00
9077;BME280;4574;51.072;17.174;2023-03-03T02:44:02;100548.31;;;2.52;100.00
9077;BME280;4574;51.072;17.174;2023-03-03T02:46:33;100561.19;;;2.55;100.00
9077;BME280;4574;51.072;17.174;2023-03-03T02:49:03;100552.88;;;2.49;100.00
9077;BME280;4574;51.072;17.174;2023-03-03T02:51:33;100553.78;;;2.48;100.00
9077;BME280;4574;51.072;17.174;2023-03-03T02:54:02;100568.13;;;2.56;100.00
9077;BME280;4574;51.072;17.174;2023-03-03T02:56:33;100576.03;;;2.55;100.00
9077;BME280;4574;51.072;17.174;2023-03-03T02:59:02;100573.69;;;2.50;100.00
9077;BME280;4574;51.072;17.174;2023-03-03T03:01:31;100583.22;;;2.51;100.00
9077;BME280;4574;51.072;17.174;2023-03-03T03:04:05;100591.56;;;2.42;100.00
9077;BME280;4574;51.072;17.174;2023-03-03T03:06:35;100596.31;;;2.20;100.00
9077;BME280;4574;51.072;17.174;2023-03-03T03:09:05;100598.00;;;2.06;100.00
9077;BME280;4574;51.072;17.174;2023-03-03T03:11:36;100582.00;;;1.96;100.00
9077;BME280;4574;51.072;17.174;2023-03-03T03:14:06;100592.19;;;2.16;100.00
9077;BME280;4574;51.072;17.174;2023-03-03T03:16:35;100591.09;;;2.20;100.00
9077;BME280;4574;51.072;17.174;2023-03-03T03:19:04;100578.78;;;2.22;100.00
9077;BME280;4574;51.072;17.174;2023-03-03T03:21:33;100587.09;;;2.29;100.00
9077;BME280;4574;51.072;17.174;2023-03-03T03:24:02;100582.81;;;2.28;100.00
9077;BME280;4574;51.072;17.174;2023-03-03T03:26:31;100579.78;;;2.35;100.00
9077;BME280;4574;51.072;17.174;2023-03-03T03:29:01;100573.63;;;2.36;100.00
9077;BME280;4574;51.072;17.174;2023-03-03T03:31:30;100559.66;;;2.37;100.00
9077;BME280;4574;51.072;17.174;2023-03-03T03:34:01;100555.94;;;2.26;100.00
9077;BME280;4574;51.072;17.174;2023-03-03T03:36:29;100541.25;;;2.09;100.00
9077;BME280;4574;51.072;17.174;2023-03-03T03:38:58;100558.41;;;2.13;100.00
9077;BME280;4574;51.072;17.174;2023-03-03T03:41:29;100558.75;;;2.07;100.00
9077;BME280;4574;51.072;17.174;2023-03-03T03:43:58;100534.03;;;1.83;100.00
9077;BME280;4574;51.072;17.174;2023-03-03T03:46:27;100549.19;;;1.92;100.00
9077;BME280;4574;51.072;17.174;2023-03-03T03:48:56;100561.63;;;2.03;100.00
9077;BME280;4574;51.072;17.174;2023-03-03T03:51:24;100558.25;;;2.01;100.00
9077;BME280;4574;51.072;17.174;2023-03-03T03:53:53;100553.88;;;2.01;100.00
9077;BME280;4574;51.072;17.174;2023-03-03T03:56:23;100567.34;;;2.09;100.00
9077;BME280;4574;51.072;17.174;2023-03-03T03:58:51;100554.63;;;2.03;100.00
9077;BME280;4574;51.072;17.174;2023-03-03T04:01:20;100575.78;;;2.14;100.00
9077;BME280;4574;51.072;17.174;2023-03-03T04:03:50;100573.91;;;2.16;100.00
9077;BME280;4574;51.072;17.174;2023-03-03T04:06:19;100573.06;;;2.16;100.00
9077;BME280;4574;51.072;17.174;2023-03-03T04:08:48;100578.78;;;2.07;100.00
9077;BME280;4574;51.072;17.174;2023-03-03T04:11:16;100581.25;;;1.94;100.00
9077;BME280;4574;51.072;17.174;2023-03-03T04:13:45;100592.19;;;1.85;100.00
9077;BME280;4574;51.072;17.174;2023-03-03T04:16:14;100579.66;;;1.76;100.00
9077;BME280;4574;51.072;17.174;2023-03-03T04:18:43;100592.94;;;1.72;100.00
9077;BME280;4574;51.072;17.174;2023-03-03T04:21:14;100583.19;;;1.75;100.00
9077;BME280;4574;51.072;17.174;2023-03-03T04:23:43;100569.56;;;1.53;100.00
9077;BME280;4574;51.072;17.174;2023-03-03T04:26:12;100587.28;;;1.64;100.00
9077;BME280;4574;51.072;17.174;2023-03-03T04:28:40;100596.53;;;1.54;100.00
9077;BME280;4574;51.072;17.174;2023-03-03T04:31:09;100608.88;;;1.50;100.00
9077;BME280;4574;51.072;17.174;2023-03-03T04:33:37;100603.81;;;1.47;100.00
9077;BME280;4574;51.072;17.174;2023-03-03T04:36:06;100595.66;;;1.38;100.00
9077;BME280;4574;51.072;17.174;2023-03-03T04:38:36;100590.31;;;1.39;100.00
9077;BME280;4574;51.072;17.174;2023-03-03T04:41:05;100589.81;;;1.33;100.00
9077;BME280;4574;51.072;17.174;2023-03-03T04:43:34;100602.59;;;1.37;100.00
9077;BME280;4574;51.072;17.174;2023-03-03T04:46:02;100613.53;;;1.28;100.00
9077;BME280;4574;51.072;17.174;2023-03-03T04:48:31;100609.38;;;1.25;100.00
9077;BME280;4574;51.072;17.174;2023-03-03T04:51:00;100610.91;;;1.28;100.00
9077;BME280;4574;51.072;17.174;2023-03-03T04:53:29;100613.03;;;1.37;100.00
9077;BME280;4574;51.072;17.174;2023-03-03T04:55:59;100619.78;;;1.41;100.00
9077;BME280;4574;51.072;17.174;2023-03-03T04:58:28;100613.25;;;1.50;100.00
9077;BME280;4574;51.072;17.174;2023-03-03T05:00:57;100591.94;;;1.42;100.00
9077;BME280;4574;51.072;17.174;2023-03-03T05:03:26;100611.00;;;1.59;100.00
9077;BME280;4574;51.072;17.174;2023-03-03T05:05:55;100603.31;;;1.56;100.00
9077;BME280;4574;51.072;17.174;2023-03-03T05:08:24;100589.56;;;1.37;100.00
9077;BME280;4574;51.072;17.174;2023-03-03T05:10:53;100598.41;;;1.35;100.00
9077;BME280;4574;51.072;17.174;2023-03-03T05:13:23;100604.44;;;1.35;100.00
9077;BME280;4574;51.072;17.174;2023-03-03T05:15:54;100586.94;;;1.22;100.00
9077;BME280;4574;51.072;17.174;2023-03-03T05:18:24;100594.50;;;1.27;100.00
9077;BME280;4574;51.072;17.174;2023-03-03T05:20:53;100585.47;;;1.17;100.00
9077;BME280;4574;51.072;17.174;2023-03-03T05:23:22;100585.91;;;1.25;100.00
9077;BME280;4574;51.072;17.174;2023-03-03T05:25:51;100591.59;;;1.16;100.00
9077;BME280;4574;51.072;17.174;2023-03-03T05:28:19;100582.19;;;1.13;100.00
9077;BME280;4574;51.072;17.174;2023-03-03T05:30:49;100583.19;;;1.11;100.00
9077;BME280;4574;51.072;17.174;2023-03-03T05:33:20;100615.84;;;1.18;100.00
9077;BME280;4574;51.072;17.174;2023-03-03T05:35:53;100612.72;;;1.11;100.00
9077;BME280;4574;51.072;17.174;2023-03-03T05:38:22;100596.91;;;1.14;100.00
9077;BME280;4574;51.072;17.174;2023-03-03T05:40:51;100604.41;;;1.20;100.00
9077;BME280;4574;51.072;17.174;2023-03-03T05:43:20;100581.19;;;1.16;100.00
9077;BME280;4574;51.072;17.174;2023-03-03T05:45:55;100594.72;;;1.39;100.00
9077;BME280;4574;51.072;17.174;2023-03-03T05:48:23;100592.63;;;1.45;100.00
9077;BME280;4574;51.072;17.174;2023-03-03T05:50:52;100594.84;;;1.53;100.00
9077;BME280;4574;51.072;17.174;2023-03-03T05:53:21;100598.09;;;1.56;100.00
9077;BME280;4574;51.072;17.174;2023-03-03T05:55:50;100597.44;;;1.53;100.00
9077;BME280;4574;51.072;17.174;2023-03-03T05:58:18;100601.97;;;1.49;100.00
9077;BME280;4574;51.072;17.174;2023-03-03T06:00:47;100600.44;;;1.45;100.00
9077;BME280;4574;51.072;17.174;2023-03-03T06:03:17;100611.72;;;1.46;100.00
9077;BME280;4574;51.072;17.174;2023-03-03T06:05:46;100613.41;;;1.47;100.00
9077;BME280;4574;51.072;17.174;2023-03-03T06:08:16;100610.38;;;1.39;100.00
9077;BME280;4574;51.072;17.174;2023-03-03T06:10:45;100604.44;;;1.35;100.00
9077;BME280;4574;51.072;17.174;2023-03-03T06:13:14;100606.47;;;1.30;100.00
9077;BME280;4574;51.072;17.174;2023-03-03T06:15:43;100610.69;;;1.33;100.00
9077;BME280;4574;51.072;17.174;2023-03-03T06:18:12;100622.56;;;1.38;100.00
9077;BME280;4574;51.072;17.174;2023-03-03T06:20:42;100617.50;;;1.35;100.00
9077;BME280;4574;51.072;17.174;2023-03-03T06:23:11;100597.28;;;1.24;100.00
9077;BME280;4574;51.072;17.174;2023-03-03T06:25:42;100616.13;;;1.28;100.00
9077;BME280;4574;51.072;17.174;2023-03-03T06:28:10;100620.56;;;1.27;100.00
9077;BME280;4574;51.072;17.174;2023-03-03T06:30:39;100612.47;;;1.16;100.00
9077;BME280;4574;51.072;17.174;2023-03-03T06:33:08;100639.59;;;1.28;100.00
9077;BME280;4574;51.072;17.174;2023-03-03T06:35:37;100646.50;;;1.13;100.00
9077;BME280;4574;51.072;17.174;2023-03-03T06:38:11;100654.31;;;1.13;100.00
9077;BME280;4574;51.072;17.174;2023-03-03T06:40:40;100652.59;;;0.96;100.00
9077;BME280;4574;51.072;17.174;2023-03-03T06:43:08;100650.44;;;1.04;100.00
9077;BME280;4574;51.072;17.174;2023-03-03T06:45:37;100637.16;;;1.09;100.00
9077;BME280;4574;51.072;17.174;2023-03-03T06:48:06;100628.72;;;1.21;100.00
9077;BME280;4574;51.072;17.174;2023-03-03T06:50:38;100634.38;;;1.28;100.00
9077;BME280;4574;51.072;17.174;2023-03-03T06:53:12;100618.41;;;1.34;100.00
9077;BME280;4574;51.072;17.174;2023-03-03T06:55:41;100610.59;;;1.34;100.00
9077;BME280;4574;51.072;17.174;2023-03-03T06:58:12;100631.84;;;1.44;100.00
9077;BME280;4574;51.072;17.174;2023-03-03T07:00:43;100630.91;;;1.45;100.00
9077;BME280;4574;51.072;17.174;2023-03-03T07:03:14;100635.81;;;1.51;100.00
9077;BME280;4574;51.072;17.174;2023-03-03T07:05:43;100642.44;;;1.56;100.00
9077;BME280;4574;51.072;17.174;2023-03-03T07:08:15;100642.94;;;1.47;100.00
9077;BME280;4574;51.072;17.174;2023-03-03T07:10:47;100643.63;;;1.51;100.00
9077;BME280;4574;51.072;17.174;2023-03-03T07:13:18;100657.19;;;1.57;100.00
9077;BME280;4574;51.072;17.174;2023-03-03T07:15:49;100660.03;;;1.53;100.00
9077;BME280;4574;51.072;17.174;2023-03-03T07:18:28;100667.50;;;1.43;100.00
9077;BME280;4574;51.072;17.174;2023-03-03T07:21:11;100665.69;;;1.12;100.00
9077;BME280;4574;51.072;17.174;2023-03-03T07:23:44;100680.09;;;1.19;100.00
9077;BME280;4574;51.072;17.174;2023-03-03T07:26:15;100683.47;;;1.21;100.00
9077;BME280;4574;51.072;17.174;2023-03-03T07:28:51;100695.28;;;1.27;100.00
9077;BME280;4574;51.072;17.174;2023-03-03T07:31:27;100683.25;;;1.08;100.00
9077;BME280;4574;51.072;17.174;2023-03-03T07:33:58;100693.38;;;1.14;100.00
9077;BME280;4574;51.072;17.174;2023-03-03T07:36:29;100685.31;;;1.19;100.00
9077;BME280;4574;51.072;17.174;2023-03-03T07:39:01;100683.91;;;1.12;100.00
9077;BME280;4574;51.072;17.174;2023-03-03T07:41:33;100670.75;;;1.15;100.00
9077;BME280;4574;51.072;17.174;2023-03-03T07:44:04;100676.19;;;1.10;100.00
9077;BME280;4574;51.072;17.174;2023-03-03T07:46:40;100677.78;;;1.13;100.00
9077;BME280;4574;51.072;17.174;2023-03-03T07:49:23;100676.88;;;1.14;100.00
9077;BME280;4574;51.072;17.174;2023-03-03T07:51:58;100675.44;;;1.08;100.00
9077;BME280;4574;51.072;17.174;2023-03-03T07:54:34;100676.88;;;1.14;100.00
9077;BME280;4574;51.072;17.174;2023-03-03T07:57:13;100678.25;;;1.21;100.00
9077;BME280;4574;51.072;17.174;2023-03-03T07:59:47;100681.78;;;1.20;100.00
9077;BME280;4574;51.072;17.174;2023-03-03T08:02:32;100679.31;;;1.17;100.00
9077;BME280;4574;51.072;17.174;2023-03-03T08:05:28;100683.78;;;1.15;100.00
9077;BME280;4574;51.072;17.174;2023-03-03T08:08:11;100671.91;;;1.09;100.00
9077;BME280;4574;51.072;17.174;2023-03-03T08:10:48;100670.88;;;0.95;100.00
9077;BME280;4574;51.072;17.174;2023-03-03T08:13:19;100672.09;;;0.88;100.00
9077;BME280;4574;51.072;17.174;2023-03-03T08:15:51;100651.56;;;0.82;100.00
9077;BME280;4574;51.072;17.174;2023-03-03T08:18:26;100666.75;;;1.08;100.00
9077;BME280;4574;51.072;17.174;2023-03-03T08:20:57;100676.66;;;1.18;100.00
9077;BME280;4574;51.072;17.174;2023-03-03T08:23:26;100675.03;;;1.16;100.00
9077;BME280;4574;51.072;17.174;2023-03-03T08:25:56;100671.50;;;1.17;100.00
9077;BME280;4574;51.072;17.174;2023-03-03T08:28:25;100663.97;;;1.27;100.00
9077;BME280;4574;51.072;17.174;2023-03-03T08:30:53;100683.25;;;1.25;100.00
9077;BME280;4574;51.072;17.174;2023-03-03T08:33:40;100658.41;;;1.18;100.00
9077;BME280;4574;51.072;17.174;2023-03-03T08:36:09;100672.56;;;1.29;100.00
9077;BME280;4574;51.072;17.174;2023-03-03T08:38:39;100661.91;;;1.34;100.00
9077;BME280;4574;51.072;17.174;2023-03-03T08:41:10;100661.22;;;1.30;100.00
9077;BME280;4574;51.072;17.174;2023-03-03T08:43:39;100656.41;;;1.23;100.00
9077;BME280;4574;51.072;17.174;2023-03-03T08:46:07;100672.97;;;1.22;100.00
9077;BME280;4574;51.072;17.174;2023-03-03T08:48:38;100666.13;;;1.20;100.00
9077;BME280;4574;51.072;17.174;2023-03-03T08:51:06;100661.84;;;1.19;100.00
9077;BME280;4574;51.072;17.174;2023-03-03T08:53:35;100695.41;;;1.25;100.00
9077;BME280;4574;51.072;17.174;2023-03-03T08:56:05;100705.53;;;1.30;100.00
9077;BME280;4574;51.072;17.174;2023-03-03T08:58:35;100694.81;;;1.36;100.00
9077;BME280;4574;51.072;17.174;2023-03-03T09:01:10;100700.72;;;1.40;100.00
9077;BME280;4574;51.072;17.174;2023-03-03T09:03:39;100703.22;;;1.41;100.00
9077;BME280;4574;51.072;17.174;2023-03-03T09:06:08;100695.25;;;1.44;100.00
9077;BME280;4574;51.072;17.174;2023-03-03T09:08:37;100694.19;;;1.48;100.00
9077;BME280;4574;51.072;17.174;2023-03-03T09:11:09;100697.88;;;1.44;100.00
9077;BME280;4574;51.072;17.174;2023-03-03T09:13:41;100696.59;;;1.36;100.00
9077;BME280;4574;51.072;17.174;2023-03-03T09:16:13;100689.28;;;1.42;100.00
9077;BME280;4574;51.072;17.174;2023-03-03T09:18:43;100708.84;;;1.34;100.00
9077;BME280;4574;51.072;17.174;2023-03-03T09:21:18;100706.88;;;1.22;100.00
9077;BME280;4574;51.072;17.174;2023-03-03T09:23:55;100713.81;;;1.22;100.00
9077;BME280;4574;51.072;17.174;2023-03-03T09:26:27;100716.44;;;1.05;100.00
9077;BME280;4574;51.072;17.174;2023-03-03T09:29:22;100713.00;;;1.21;100.00
9077;BME280;4574;51.072;17.174;2023-03-03T09:31:52;100718.53;;;1.32;100.00
9077;BME280;4574;51.072;17.174;2023-03-03T09:34:24;100724.09;;;1.41;100.00
9077;BME280;4574;51.072;17.174;2023-03-03T09:36:54;100724.66;;;1.48;100.00
9077;BME280;4574;51.072;17.174;2023-03-03T09:39:28;100731.31;;;1.53;100.00
9077;BME280;4574;51.072;17.174;2023-03-03T09:48:31;100720.06;;;1.36;100.00
9077;BME280;4574;51.072;17.174;2023-03-03T09:51:14;100719.97;;;1.37;100.00
9077;BME280;4574;51.072;17.174;2023-03-03T09:53:56;100715.34;;;1.42;100.00
9077;BME280;4574;51.072;17.174;2023-03-03T09:56:32;100717.75;;;1.47;100.00
9077;BME280;4574;51.072;17.174;2023-03-03T09:59:13;100720.56;;;1.42;100.00
9077;BME280;4574;51.072;17.174;2023-03-03T10:01:53;100717.50;;;1.34;100.00
9077;BME280;4574;51.072;17.174;2023-03-03T10:04:47;100729.63;;;1.35;100.00
9077;BME280;4574;51.072;17.174;2023-03-03T10:07:31;100728.25;;;1.45;100.00
9077;BME280;4574;51.072;17.174;2023-03-03T10:10:20;100717.03;;;1.43;100.00
9077;BME280;4574;51.072;17.174;2023-03-03T10:13:02;100722.56;;;1.37;100.00
9077;BME280;4574;51.072;17.174;2023-03-03T10:15:43;100718.66;;;1.46;100.00
9077;BME280;4574;51.072;17.174;2023-03-03T10:18:27;100727.16;;;1.49;100.00
9077;BME280;4574;51.072;17.174;2023-03-03T10:21:06;100717.44;;;1.36;100.00
9077;BME280;4574;51.072;17.174;2023-03-03T10:23:52;100727.47;;;1.43;100.00
9077;BME280;4574;51.072;17.174;2023-03-03T10:26:51;100717.91;;;1.44;100.00
9077;BME280;4574;51.072;17.174;2023-03-03T10:29:43;100717.44;;;1.53;100.00
9077;BME280;4574;51.072;17.174;2023-03-03T10:32:35;100718.81;;;1.60;100.00
9077;BME280;4574;51.072;17.174;2023-03-03T10:38:41;100721.94;;;1.49;100.00
9077;BME280;4574;51.072;17.174;2023-03-03T10:41:26;100723.72;;;1.49;100.00
9077;BME280;4574;51.072;17.174;2023-03-03T10:44:10;100717.75;;;1.47;100.00
9077;BME280;4574;51.072;17.174;2023-03-03T10:46:53;100713.59;;;1.60;100.00
9077;BME280;4574;51.072;17.174;2023-03-03T10:49:48;100716.41;;;1.55;100.00
9077;BME280;4574;51.072;17.174;2023-03-03T10:52:35;100700.09;;;1.52;100.00
9077;BME280;4574;51.072;17.174;2023-03-03T10:55:19;100703.66;;;1.66;100.00
9077;BME280;4574;51.072;17.174;2023-03-03T10:58:00;100684.78;;;1.61;100.00
9077;BME280;4574;51.072;17.174;2023-03-03T11:00:35;100701.59;;;1.73;100.00
9077;BME280;4574;51.072;17.174;2023-03-03T11:06:22;100702.59;;;1.53;100.00
9077;BME280;4574;51.072;17.174;2023-03-03T11:08:57;100688.16;;;1.63;100.00
9077;BME280;4574;51.072;17.174;2023-03-03T11:11:34;100682.94;;;1.63;100.00
9077;BME280;4574;51.072;17.174;2023-03-03T11:14:12;100683.22;;;1.59;100.00
9077;BME280;4574;51.072;17.174;2023-03-03T11:16:54;100679.91;;;1.55;100.00
9077;BME280;4574;51.072;17.174;2023-03-03T11:19:42;100687.34;;;1.63;100.00
9077;BME280;4574;51.072;17.174;2023-03-03T11:22:24;100675.53;;;1.56;100.00
9077;BME280;4574;51.072;17.174;2023-03-03T11:25:17;100693.94;;;1.70;100.00
9077;BME280;4574;51.072;17.174;2023-03-03T11:28:11;100692.00;;;1.73;100.00
9077;BME280;4574;51.072;17.174;2023-03-03T11:31:01;100688.91;;;1.82;100.00
9077;BME280;4574;51.072;17.174;2023-03-03T11:33:36;100674.94;;;1.83;100.00
9077;BME280;4574;51.072;17.174;2023-03-03T11:36:10;100676.63;;;1.84;100.00
9077;BME280;4574;51.072;17.174;2023-03-03T11:38:53;100673.44;;;1.79;100.00
9077;BME280;4574;51.072;17.174;2023-03-03T11:41:38;100671.75;;;1.78;100.00
9077;BME280;4574;51.072;17.174;2023-03-03T11:44:16;100666.09;;;1.70;100.00
9077;BME280;4574;51.072;17.174;2023-03-03T11:46:48;100669.75;;;1.66;100.00
9077;BME280;4574;51.072;17.174;2023-03-03T11:49:22;100676.66;;;1.67;100.00
9077;BME280;4574;51.072;17.174;2023-03-03T11:52:02;100672.06;;;1.72;100.00
9077;BME280;4574;51.072;17.174;2023-03-03T11:54:48;100677.56;;;1.66;100.00
9077;BME280;4574;51.072;17.174;2023-03-03T11:57:26;100665.00;;;1.74;100.00
9077;BME280;4574;51.072;17.174;2023-03-03T12:00:04;100664.41;;;1.85;100.00
9077;BME280;4574;51.072;17.174;2023-03-03T12:02:57;100669.75;;;1.99;100.00
9077;BME280;4574;51.072;17.174;2023-03-03T12:05:37;100670.09;;;2.08;100.00
9077;BME280;4574;51.072;17.174;2023-03-03T12:08:21;100663.69;;;2.14;100.00
9077;BME280;4574;51.072;17.174;2023-03-03T12:10:54;100654.69;;;2.19;100.00
9077;BME280;4574;51.072;17.174;2023-03-03T12:13:46;100662.03;;;2.28;100.00
9077;BME280;4574;51.072;17.174;2023-03-03T12:16:25;100647.44;;;2.24;100.00
9077;BME280;4574;51.072;17.174;2023-03-03T12:22:12;100658.97;;;2.05;100.00
9077;BME280;4574;51.072;17.174;2023-03-03T12:25:03;100652.66;;;2.09;100.00
9077;BME280;4574;51.072;17.174;2023-03-03T12:27:42;100659.31;;;2.14;100.00
9077;BME280;4574;51.072;17.174;2023-03-03T12:30:22;100656.13;;;2.09;100.00
9077;BME280;4574;51.072;17.174;2023-03-03T12:33:02;100657.53;;;1.99;100.00
9077;BME280;4574;51.072;17.174;2023-03-03T12:35:40;100655.94;;;2.12;100.00
9077;BME280;4574;51.072;17.174;2023-03-03T12:38:14;100654.44;;;2.24;100.00
9077;BME280;4574;51.072;17.174;2023-03-03T12:40:54;100651.81;;;2.24;100.00
9077;BME280;4574;51.072;17.174;2023-03-03T12:43:37;100644.09;;;2.22;100.00
9077;BME280;4574;51.072;17.174;2023-03-03T12:46:18;100648.09;;;2.28;100.00
9077;BME280;4574;51.072;17.174;2023-03-03T12:48:54;100648.19;;;2.26;100.00
9077;BME280;4574;51.072;17.174;2023-03-03T12:51:35;100654.78;;;2.33;100.00
9077;BME280;4574;51.072;17.174;2023-03-03T12:57:11;100644.97;;;2.37;100.00
9077;BME280;4574;51.072;17.174;2023-03-03T12:59:50;100642.78;;;2.45;100.00
9077;BME280;4574;51.072;17.174;2023-03-03T13:05:30;100651.06;;;2.37;100.00
9077;BME280;4574;51.072;17.174;2023-03-03T13:08:27;100648.00;;;2.45;100.00
9077;BME280;4574;51.072;17.174;2023-03-03T13:11:12;100646.25;;;2.45;100.00
9077;BME280;4574;51.072;17.174;2023-03-03T13:13:51;100652.75;;;2.38;100.00
9077;BME280;4574;51.072;17.174;2023-03-03T13:16:26;100634.81;;;2.32;100.00
9077;BME280;4574;51.072;17.174;2023-03-03T13:19:10;100645.16;;;2.34;100.00
9077;BME280;4574;51.072;17.174;2023-03-03T13:21:47;100646.84;;;2.35;100.00
9077;BME280;4574;51.072;17.174;2023-03-03T13:24:22;100642.53;;;2.34;100.00
9077;BME280;4574;51.072;17.174;2023-03-03T13:26:54;100634.88;;;2.31;100.00
9077;BME280;4574;51.072;17.174;2023-03-03T13:29:26;100643.81;;;2.42;100.00
9077;BME280;4574;51.072;17.174;2023-03-03T13:31:59;100649.53;;;2.49;100.00
9077;BME280;4574;51.072;17.174;2023-03-03T13:34:38;100638.06;;;2.51;100.00
9077;BME280;4574;51.072;17.174;2023-03-03T13:37:14;100640.09;;;2.46;100.00
9077;BME280;4574;51.072;17.174;2023-03-03T13:39:54;100630.31;;;2.50;100.00
9077;BME280;4574;51.072;17.174;2023-03-03T13:42:30;100625.75;;;2.53;100.00
9077;BME280;4574;51.072;17.174;2023-03-03T13:45:06;100639.41;;;2.58;100.00
9077;BME280;4574;51.072;17.174;2023-03-03T13:47:46;100625.25;;;2.62;100.00
9077;BME280;4574;51.072;17.174;2023-03-03T13:50:20;100630.28;;;2.65;100.00
9077;BME280;4574;51.072;17.174;2023-03-03T13:53:12;100624.72;;;2.71;100.00
9077;BME280;4574;51.072;17.174;2023-03-03T13:55:49;100620.81;;;2.78;100.00
9077;BME280;4574;51.072;17.174;2023-03-03T13:58:25;100623.09;;;2.84;100.00